sensor_id;sensor_type;location;lat;lon;timestamp;pressure;altitude;pressure_sealevel;temperature;humidity
61682;BME280;47577;43.610;25.010;2023-10-13T00:01:57;100814.06;;;11.52;74.33
61682;BME280;47577;43.610;25.010;2023-10-13T00:04:29;100802.78;;;11.44;73.87
61682;BME280;47577;43.610;25.010;2023-10-13T00:06:58;100814.16;;;11.49;74.17
61682;BME280;47577;43.610;25.010;2023-10-13T00:09:26;100808.91;;;11.46;74.76
61682;BME280;47577;43.610;25.010;2023-10-13T00:11:58;100816.34;;;11.35;75.04
61682;BME280;47577;43.610;25.010;2023-10-13T00:14:24;100806.72;;;11.31;75.55
61682;BME280;47577;43.610;25.010;2023-10-13T00:17:04;100805.06;;;11.27;75.18
61682;BME280;47577;43.610;25.010;2023-10-13T00:19:37;100805.97;;;11.27;75.92
61682;BME280;47577;43.610;25.010;2023-10-13T00:22:08;100805.03;;;11.28;75.62
61682;BME280;47577;43.610;25.010;2023-10-13T00:24:42;100797.81;;;11.32;74.99
61682;BME280;47577;43.610;25.010;2023-10-13T00:27:20;100802.28;;;11.31;75.29
61682;BME280;47577;43.610;25.010;2023-10-13T00:29:57;100805.16;;;11.24;75.03
61682;BME280;47577;43.610;25.010;2023-10-13T00:32:52;100814.84;;;11.26;75.77
61682;BME280;47577;43.610;25.010;2023-10-13T00:35:26;100794.56;;;11.22;75.87
61682;BME280;47577;43.610;25.010;2023-10-13T00:37:52;100814.53;;;11.37;75.61
61682;BME280;47577;43.610;25.010;2023-10-13T00:40:21;100813.47;;;11.43;75.96
61682;BME280;47577;43.610;25.010;2023-10-13T00:42:57;100791.25;;;11.44;75.77
61682;BME280;47577;43.610;25.010;2023-10-13T00:45:47;100812.84;;;11.63;75.04
61682;BME280;47577;43.610;25.010;2023-10-13T00:48:29;100811.06;;;11.63;74.85
61682;BME280;47577;43.610;25.010;2023-10-13T00:51:08;100802.97;;;11.66;74.81
61682;BME280;47577;43.610;25.010;2023-10-13T00:53:39;100799.84;;;11.80;74.10
61682;BME280;47577;43.610;25.010;2023-10-13T00:56:06;100815.84;;;11.80;74.36
61682;BME280;47577;43.610;25.010;2023-10-13T00:58:36;100811.59;;;11.75;74.46
61682;BME280;47577;43.610;25.010;2023-10-13T01:01:05;100815.16;;;11.74;74.38
61682;BME280;47577;43.610;25.010;2023-10-13T01:03:53;100803.47;;;11.79;74.81
61682;BME280;47577;43.610;25.010;2023-10-13T01:06:21;100813.03;;;11.85;74.12
61682;BME280;47577;43.610;25.010;2023-10-13T01:09:04;100817.50;;;11.84;74.19
61682;BME280;47577;43.610;25.010;2023-10-13T01:11:40;100814.69;;;11.89;73.64
61682;BME280;47577;43.610;25.010;2023-10-13T01:14:09;100796.13;;;11.86;73.41
61682;BME280;47577;43.610;25.010;2023-10-13T01:16:37;100804.03;;;11.89;72.18
61682;BME280;47577;43.610;25.010;2023-10-13T01:19:05;100803.84;;;11.95;72.50
61682;BME280;47577;43.610;25.010;2023-10-13T01:21:32;100801.13;;;11.97;72.85
61682;BME280;47577;43.610;25.010;2023-10-13T01:23:59;100804.69;;;11.97;72.33
61682;BME280;47577;43.610;25.010;2023-10-13T01:26:25;100804.72;;;11.96;72.31
61682;BME280;47577;43.610;25.010;2023-10-13T01:28:56;100800.34;;;11.93;72.80
61682;BME280;47577;43.610;25.010;2023-10-13T01:31:22;100806.63;;;11.92;72.97
61682;BME280;47577;43.610;25.010;2023-10-13T01:33:56;100800.41;;;11.92;72.49
61682;BME280;47577;43.610;25.010;2023-10-13T01:36:26;100806.53;;;11.94;73.96
61682;BME280;47577;43.610;25.010;2023-10-13T01:38:53;100797.69;;;11.93;73.15
61682;BME280;47577;43.610;25.010;2023-10-13T01:41:21;100794.03;;;11.97;73.04
61682;BME280;47577;43.610;25.010;2023-10-13T01:43:47;100791.06;;;12.05;74.03
61682;BME280;47577;43.610;25.010;2023-10-13T01:46:14;100790.66;;;12.17;74.41
61682;BME280;47577;43.610;25.010;2023-10-13T01:48:41;100796.56;;;12.27;73.85
61682;BME280;47577;43.610;25.010;2023-10-13T01:51:09;100796.91;;;12.43;74.38
61682;BME280;47577;43.610;25.010;2023-10-13T01:53:37;100792.81;;;12.58;74.22
61682;BME280;47577;43.610;25.010;2023-10-13T01:56:06;100790.41;;;12.75;72.86
61682;BME280;47577;43.610;25.010;2023-10-13T01:58:40;100795.28;;;12.88;73.21
61682;BME280;47577;43.610;25.010;2023-10-13T02:01:13;100783.81;;;13.09;71.64
61682;BME280;47577;43.610;25.010;2023-10-13T02:03:46;100781.34;;;13.27;70.71
61682;BME280;47577;43.610;25.010;2023-10-13T02:06:13;100783.81;;;13.33;71.60
61682;BME280;47577;43.610;25.010;2023-10-13T02:08:44;100784.25;;;13.44;69.94
61682;BME280;47577;43.610;25.010;2023-10-13T02:11:12;100784.50;;;13.38;70.69
61682;BME280;47577;43.610;25.010;2023-10-13T02:13:38;100788.03;;;13.39;71.14
61682;BME280;47577;43.610;25.010;2023-10-13T02:16:13;100795.38;;;13.56;69.74
61682;BME280;47577;43.610;25.010;2023-10-13T02:18:43;100794.03;;;13.67;69.34
61682;BME280;47577;43.610;25.010;2023-10-13T02:21:09;100795.38;;;13.78;69.82
61682;BME280;47577;43.610;25.010;2023-10-13T02:23:39;100800.56;;;13.82;67.93
61682;BME280;47577;43.610;25.010;2023-10-13T02:26:25;100798.00;;;13.79;68.28
61682;BME280;47577;43.610;25.010;2023-10-13T02:28:59;100800.44;;;13.85;67.71
61682;BME280;47577;43.610;25.010;2023-10-13T02:31:29;100797.88;;;13.82;68.47
61682;BME280;47577;43.610;25.010;2023-10-13T02:33:55;100788.66;;;13.89;68.64
61682;BME280;47577;43.610;25.010;2023-10-13T02:36:21;100790.28;;;13.94;67.75
61682;BME280;47577;43.610;25.010;2023-10-13T02:39:03;100800.19;;;14.12;68.39
61682;BME280;47577;43.610;25.010;2023-10-13T02:41:33;100799.41;;;14.10;66.57
61682;BME280;47577;43.610;25.010;2023-10-13T02:44:03;100795.88;;;14.10;66.92
61682;BME280;47577;43.610;25.010;2023-10-13T02:46:35;100792.03;;;14.15;67.91
61682;BME280;47577;43.610;25.010;2023-10-13T02:49:05;100791.25;;;14.13;67.49
61682;BME280;47577;43.610;25.010;2023-10-13T02:51:38;100789.56;;;14.11;66.82
61682;BME280;47577;43.610;25.010;2023-10-13T02:54:07;100791.97;;;14.17;67.93
61682;BME280;47577;43.610;25.010;2023-10-13T02:56:37;100795.03;;;14.07;67.58
61682;BME280;47577;43.610;25.010;2023-10-13T02:59:03;100776.78;;;13.97;67.90
61682;BME280;47577;43.610;25.010;2023-10-13T03:01:33;100787.97;;;14.06;67.85
61682;BME280;47577;43.610;25.010;2023-10-13T03:04:03;100794.84;;;14.12;66.71
61682;BME280;47577;43.610;25.010;2023-10-13T03:06:29;100797.53;;;14.12;68.33
61682;BME280;47577;43.610;25.010;2023-10-13T03:09:08;100793.00;;;14.14;66.69
61682;BME280;47577;43.610;25.010;2023-10-13T03:11:47;100788.91;;;14.05;68.17
61682;BME280;47577;43.610;25.010;2023-10-13T03:14:22;100794.72;;;14.15;68.51
61682;BME280;47577;43.610;25.010;2023-10-13T03:17:01;100785.81;;;13.94;68.35
61682;BME280;47577;43.610;25.010;2023-10-13T03:19:44;100790.97;;;13.99;69.18
61682;BME280;47577;43.610;25.010;2023-10-13T03:22:17;100779.22;;;13.81;67.98
61682;BME280;47577;43.610;25.010;2023-10-13T03:24:44;100799.03;;;13.97;67.41
61682;BME280;47577;43.610;25.010;2023-10-13T03:27:19;100789.97;;;14.01;67.97
61682;BME280;47577;43.610;25.010;2023-10-13T03:29:49;100782.94;;;13.99;67.46
61682;BME280;47577;43.610;25.010;2023-10-13T03:32:22;100786.09;;;14.08;65.40
61682;BME280;47577;43.610;25.010;2023-10-13T03:34:51;100775.84;;;13.98;66.93
61682;BME280;47577;43.610;25.010;2023-10-13T03:37:17;100777.91;;;13.91;66.98
61682;BME280;47577;43.610;25.010;2023-10-13T03:39:44;100770.78;;;13.69;67.13
61682;BME280;47577;43.610;25.010;2023-10-13T03:42:11;100776.06;;;13.49;67.44
61682;BME280;47577;43.610;25.010;2023-10-13T03:44:47;100773.34;;;13.27;69.86
61682;BME280;47577;43.610;25.010;2023-10-13T03:47:13;100778.53;;;13.08;68.74
61682;BME280;47577;43.610;25.010;2023-10-13T03:49:53;100773.13;;;12.86;70.87
61682;BME280;47577;43.610;25.010;2023-10-13T03:52:38;100791.63;;;12.67;71.05
61682;BME280;47577;43.610;25.010;2023-10-13T03:55:04;100791.47;;;12.46;72.12
61682;BME280;47577;43.610;25.010;2023-10-13T03:57:31;100789.75;;;12.43;71.13
61682;BME280;47577;43.610;25.010;2023-10-13T04:00:03;100787.53;;;12.31;72.39
61682;BME280;47577;43.610;25.010;2023-10-13T04:02:34;100791.44;;;11.66;76.27
61682;BME280;47577;43.610;25.010;2023-10-13T04:05:02;100804.81;;;11.93;74.82
61682;BME280;47577;43.610;25.010;2023-10-13T04:07:34;100810.72;;;12.02;73.12
61682;BME280;47577;43.610;25.010;2023-10-13T04:10:26;100805.72;;;11.92;73.59
61682;BME280;47577;43.610;25.010;2023-10-13T04:13:09;100808.56;;;11.85;73.46
61682;BME280;47577;43.610;25.010;2023-10-13T04:15:57;100819.78;;;11.68;73.83
61682;BME280;47577;43.610;25.010;2023-10-13T04:19:01;100811.22;;;11.59;73.94
61682;BME280;47577;43.610;25.010;2023-10-13T04:21:26;100824.56;;;11.57;74.20
61682;BME280;47577;43.610;25.010;2023-10-13T04:24:11;100838.63;;;11.32;74.45
61682;BME280;47577;43.610;25.010;2023-10-13T04:26:48;100828.13;;;11.28;74.77
61682;BME280;47577;43.610;25.010;2023-10-13T04:29:33;100826.72;;;11.16;75.15
61682;BME280;47577;43.610;25.010;2023-10-13T04:32:31;100832.13;;;11.13;75.53
61682;BME280;47577;43.610;25.010;2023-10-13T04:35:19;100833.97;;;11.09;76.55
61682;BME280;47577;43.610;25.010;2023-10-13T04:37:49;100833.22;;;11.04;75.35
61682;BME280;47577;43.610;25.010;2023-10-13T04:40:27;100843.09;;;11.01;75.50
61682;BME280;47577;43.610;25.010;2023-10-13T04:43:00;100832.00;;;10.85;76.48
61682;BME280;47577;43.610;25.010;2023-10-13T04:45:52;100840.81;;;10.87;76.62
61682;BME280;47577;43.610;25.010;2023-10-13T04:48:21;100841.13;;;10.76;76.55
61682;BME280;47577;43.610;25.010;2023-10-13T04:50:48;100857.84;;;10.81;77.61
61682;BME280;47577;43.610;25.010;2023-10-13T04:53:18;100856.41;;;10.69;77.19
61682;BME280;47577;43.610;25.010;2023-10-13T04:55:59;100873.09;;;10.74;77.42
61682;BME280;47577;43.610;25.010;2023-10-13T04:58:25;100880.47;;;10.63;78.81
61682;BME280;47577;43.610;25.010;2023-10-13T05:01:00;100884.72;;;10.70;78.03
61682;BME280;47577;43.610;25.010;2023-10-13T05:03:51;100874.03;;;10.72;78.79
61682;BME280;47577;43.610;25.010;2023-10-13T05:06:35;100872.38;;;10.68;78.37
61682;BME280;47577;43.610;25.010;2023-10-13T05:09:10;100881.91;;;10.76;78.05
61682;BME280;47577;43.610;25.010;2023-10-13T05:11:54;100874.56;;;10.85;77.89
61682;BME280;47577;43.610;25.010;2023-10-13T05:14:39;100890.38;;;10.91;78.52
61682;BME280;47577;43.610;25.010;2023-10-13T05:17:23;100883.88;;;11.01;78.34
61682;BME280;47577;43.610;25.010;2023-10-13T05:20:08;100889.84;;;11.09;78.00
61682;BME280;47577;43.610;25.010;2023-10-13T05:22:53;100878.19;;;11.15;78.25
61682;BME280;47577;43.610;25.010;2023-10-13T05:25:38;100878.69;;;11.28;78.14
61682;BME280;47577;43.610;25.010;2023-10-13T05:28:22;100874.84;;;11.38;78.38
61682;BME280;47577;43.610;25.010;2023-10-13T05:31:09;100886.78;;;11.55;77.33
61682;BME280;47577;43.610;25.010;2023-10-13T05:33:54;100880.13;;;11.69;77.76
61682;BME280;47577;43.610;25.010;2023-10-13T05:36:38;100867.34;;;11.81;77.33
61682;BME280;47577;43.610;25.010;2023-10-13T05:39:23;100868.59;;;11.99;77.63
61682;BME280;47577;43.610;25.010;2023-10-13T05:42:07;100876.84;;;12.18;76.91
61682;BME280;47577;43.610;25.010;2023-10-13T05:44:51;100872.63;;;12.37;75.77
61682;BME280;47577;43.610;25.010;2023-10-13T05:47:35;100869.41;;;12.54;76.53
61682;BME280;47577;43.610;25.010;2023-10-13T05:50:21;100873.88;;;12.79;75.02
61682;BME280;47577;43.610;25.010;2023-10-13T05:52:48;100871.59;;;12.93;74.07
61682;BME280;47577;43.610;25.010;2023-10-13T05:55:27;100873.88;;;13.28;75.16
61682;BME280;47577;43.610;25.010;2023-10-13T05:58:12;100862.94;;;13.59;73.31
61682;BME280;47577;43.610;25.010;2023-10-13T06:00:57;100869.16;;;14.04;72.17
61682;BME280;47577;43.610;25.010;2023-10-13T06:03:42;100866.84;;;14.17;71.71
61682;BME280;47577;43.610;25.010;2023-10-13T06:06:26;100861.13;;;14.26;70.92
61682;BME280;47577;43.610;25.010;2023-10-13T06:09:10;100873.34;;;14.54;70.56
61682;BME280;47577;43.610;25.010;2023-10-13T06:11:55;100872.91;;;14.65;69.49
61682;BME280;47577;43.610;25.010;2023-10-13T06:14:39;100881.22;;;14.79;68.63
61682;BME280;47577;43.610;25.010;2023-10-13T06:17:23;100898.56;;;15.30;66.97
61682;BME280;47577;43.610;25.010;2023-10-13T06:20:08;100899.66;;;15.64;64.45
61682;BME280;47577;43.610;25.010;2023-10-13T06:22:52;100894.69;;;15.95;64.06
61682;BME280;47577;43.610;25.010;2023-10-13T06:25:37;100887.72;;;16.09;62.23
61682;BME280;47577;43.610;25.010;2023-10-13T06:28:21;100893.13;;;16.27;62.39
61682;BME280;47577;43.610;25.010;2023-10-13T06:31:05;100894.72;;;16.49;60.84
61682;BME280;47577;43.610;25.010;2023-10-13T06:33:37;100900.94;;;16.67;60.67
61682;BME280;47577;43.610;25.010;2023-10-13T06:36:09;100898.84;;;16.73;60.94
61682;BME280;47577;43.610;25.010;2023-10-13T06:38:35;100894.41;;;16.72;61.17
61682;BME280;47577;43.610;25.010;2023-10-13T06:41:05;100890.72;;;16.75;60.32
61682;BME280;47577;43.610;25.010;2023-10-13T06:43:36;100886.66;;;16.84;59.87
61682;BME280;47577;43.610;25.010;2023-10-13T06:46:10;100895.69;;;17.00;59.97
61682;BME280;47577;43.610;25.010;2023-10-13T06:48:42;100902.00;;;16.99;60.34
61682;BME280;47577;43.610;25.010;2023-10-13T06:51:09;100905.41;;;17.03;58.70
61682;BME280;47577;43.610;25.010;2023-10-13T06:53:45;100891.84;;;17.22;58.78
61682;BME280;47577;43.610;25.010;2023-10-13T06:56:13;100890.00;;;17.40;57.73
61682;BME280;47577;43.610;25.010;2023-10-13T06:58:44;100889.19;;;17.38;58.19
61682;BME280;47577;43.610;25.010;2023-10-13T07:01:12;100885.16;;;17.46;58.24
61682;BME280;47577;43.610;25.010;2023-10-13T07:03:44;100878.75;;;17.65;57.31
61682;BME280;47577;43.610;25.010;2023-10-13T07:06:14;100900.19;;;17.82;56.94
61682;BME280;47577;43.610;25.010;2023-10-13T07:08:46;100900.56;;;17.92;56.91
61682;BME280;47577;43.610;25.010;2023-10-13T07:11:18;100904.47;;;18.02;55.28
61682;BME280;47577;43.610;25.010;2023-10-13T07:14:02;100909.72;;;18.36;54.01
61682;BME280;47577;43.610;25.010;2023-10-13T07:17:02;100898.88;;;18.37;54.66
61682;BME280;47577;43.610;25.010;2023-10-13T07:19:30;100915.72;;;18.41;55.34
61682;BME280;47577;43.610;25.010;2023-10-13T07:21:56;100921.41;;;18.51;55.77
61682;BME280;47577;43.610;25.010;2023-10-13T07:24:29;100920.97;;;18.58;55.06
61682;BME280;47577;43.610;25.010;2023-10-13T07:26:58;100922.66;;;18.75;53.01
61682;BME280;47577;43.610;25.010;2023-10-13T07:29:33;100913.63;;;18.76;54.56
61682;BME280;47577;43.610;25.010;2023-10-13T07:32:02;100910.41;;;18.86;51.91
61682;BME280;47577;43.610;25.010;2023-10-13T07:34:29;100917.25;;;18.91;52.77
61682;BME280;47577;43.610;25.010;2023-10-13T07:36:58;100922.56;;;19.07;53.59
61682;BME280;47577;43.610;25.010;2023-10-13T07:39:33;100927.28;;;19.04;51.36
61682;BME280;47577;43.610;25.010;2023-10-13T07:42:05;100937.91;;;19.35;52.50
61682;BME280;47577;43.610;25.010;2023-10-13T07:44:40;100936.56;;;19.43;51.53
61682;BME280;47577;43.610;25.010;2023-10-13T07:47:11;100935.09;;;19.66;50.00
61682;BME280;47577;43.610;25.010;2023-10-13T07:49:38;100932.03;;;19.72;49.71
61682;BME280;47577;43.610;25.010;2023-10-13T07:52:10;100935.13;;;19.80;51.17
61682;BME280;47577;43.610;25.010;2023-10-13T07:54:47;100931.56;;;19.80;52.02
61682;BME280;47577;43.610;25.010;2023-10-13T07:57:17;100931.56;;;19.94;51.15
61682;BME280;47577;43.610;25.010;2023-10-13T07:59:43;100937.69;;;20.11;51.87
61682;BME280;47577;43.610;25.010;2023-10-13T08:02:28;100929.13;;;20.31;55.52
61682;BME280;47577;43.610;25.010;2023-10-13T08:05:12;100925.84;;;20.53;54.74
61682;BME280;47577;43.610;25.010;2023-10-13T08:07:40;100929.22;;;20.57;54.52
61682;BME280;47577;43.610;25.010;2023-10-13T08:10:08;100927.19;;;20.60;53.92
61682;BME280;47577;43.610;25.010;2023-10-13T08:12:35;100923.47;;;20.76;52.26
61682;BME280;47577;43.610;25.010;2023-10-13T08:15:03;100930.97;;;20.98;51.78
61682;BME280;47577;43.610;25.010;2023-10-13T08:17:59;100916.38;;;21.13;52.38
61682;BME280;47577;43.610;25.010;2023-10-13T08:20:30;100906.09;;;21.18;46.57
61682;BME280;47577;43.610;25.010;2023-10-13T08:22:56;100918.75;;;21.31;47.95
61682;BME280;47577;43.610;25.010;2023-10-13T08:25:39;100911.28;;;21.22;48.50
61682;BME280;47577;43.610;25.010;2023-10-13T08:28:23;100903.75;;;21.27;46.62
61682;BME280;47577;43.610;25.010;2023-10-13T08:31:06;100905.03;;;21.34;46.89
61682;BME280;47577;43.610;25.010;2023-10-13T08:33:52;100904.81;;;21.37;47.44
61682;BME280;47577;43.610;25.010;2023-10-13T08:36:31;100892.91;;;21.52;45.06
61682;BME280;47577;43.610;25.010;2023-10-13T08:38:57;100893.34;;;21.59;45.26
61682;BME280;47577;43.610;25.010;2023-10-13T08:41:23;100890.47;;;21.73;43.80
61682;BME280;47577;43.610;25.010;2023-10-13T08:43:52;100872.66;;;21.71;43.07
61682;BME280;47577;43.610;25.010;2023-10-13T08:46:30;100895.72;;;22.01;44.05
61682;BME280;47577;43.610;25.010;2023-10-13T08:49:05;100898.13;;;22.17;45.16
61682;BME280;47577;43.610;25.010;2023-10-13T08:51:42;100892.78;;;22.28;44.83
61682;BME280;47577;43.610;25.010;2023-10-13T08:54:15;100881.53;;;22.34;43.92
61682;BME280;47577;43.610;25.010;2023-10-13T08:56:48;100892.34;;;22.58;43.92
61682;BME280;47577;43.610;25.010;2023-10-13T08:59:29;100881.34;;;22.84;42.23
61682;BME280;47577;43.610;25.010;2023-10-13T09:02:23;100895.53;;;22.99;41.80
61682;BME280;47577;43.610;25.010;2023-10-13T09:05:09;100891.19;;;22.96;41.38
61682;BME280;47577;43.610;25.010;2023-10-13T09:07:54;100904.44;;;22.77;42.00
61682;BME280;47577;43.610;25.010;2023-10-13T09:10:24;100894.50;;;22.89;41.67
61682;BME280;47577;43.610;25.010;2023-10-13T09:12:59;100899.59;;;23.05;40.78
61682;BME280;47577;43.610;25.010;2023-10-13T09:15:30;100899.38;;;23.08;42.69
61682;BME280;47577;43.610;25.010;2023-10-13T09:18:23;100896.22;;;22.90;39.63
61682;BME280;47577;43.610;25.010;2023-10-13T09:21:03;100899.38;;;23.08;40.53
61682;BME280;47577;43.610;25.010;2023-10-13T09:23:49;100894.59;;;23.23;41.14
61682;BME280;47577;43.610;25.010;2023-10-13T09:26:15;100899.03;;;23.24;41.37
61682;BME280;47577;43.610;25.010;2023-10-13T09:28:44;100909.81;;;23.01;40.40
61682;BME280;47577;43.610;25.010;2023-10-13T09:31:10;100920.00;;;23.22;40.02
61682;BME280;47577;43.610;25.010;2023-10-13T09:33:36;100912.13;;;23.30;40.42
61682;BME280;47577;43.610;25.010;2023-10-13T09:36:05;100910.13;;;23.32;41.81
61682;BME280;47577;43.610;25.010;2023-10-13T09:38:38;100908.69;;;23.28;40.62
61682;BME280;47577;43.610;25.010;2023-10-13T09:41:07;100913.47;;;23.47;41.56
61682;BME280;47577;43.610;25.010;2023-10-13T09:43:52;100899.28;;;23.66;39.62
61682;BME280;47577;43.610;25.010;2023-10-13T09:46:21;100912.38;;;23.72;39.70
61682;BME280;47577;43.610;25.010;2023-10-13T09:48:57;100911.75;;;23.68;40.75
61682;BME280;47577;43.610;25.010;2023-10-13T09:51:31;100903.13;;;23.63;40.69
61682;BME280;47577;43.610;25.010;2023-10-13T09:54:13;100904.59;;;23.67;42.20
61682;BME280;47577;43.610;25.010;2023-10-13T09:57:08;100908.28;;;23.78;40.21
61682;BME280;47577;43.610;25.010;2023-10-13T09:59:46;100907.03;;;24.04;39.19
61682;BME280;47577;43.610;25.010;2023-10-13T10:02:18;100909.50;;;24.07;38.10
61682;BME280;47577;43.610;25.010;2023-10-13T10:04:54;100909.44;;;24.30;37.91
61682;BME280;47577;43.610;25.010;2023-10-13T10:07:28;100909.81;;;24.25;37.67
61682;BME280;47577;43.610;25.010;2023-10-13T10:09:58;100905.78;;;24.08;38.10
61682;BME280;47577;43.610;25.010;2023-10-13T10:15:18;100891.66;;;24.26;37.93
61682;BME280;47577;43.610;25.010;2023-10-13T10:17:54;100891.88;;;24.34;37.99
61682;BME280;47577;43.610;25.010;2023-10-13T10:20:40;100883.69;;;24.45;39.02
61682;BME280;47577;43.610;25.010;2023-10-13T10:23:08;100884.69;;;24.12;37.99
61682;BME280;47577;43.610;25.010;2023-10-13T10:25:48;100878.25;;;24.13;38.21
61682;BME280;47577;43.610;25.010;2023-10-13T10:28:17;100883.53;;;24.15;37.70
61682;BME280;47577;43.610;25.010;2023-10-13T10:30:44;100882.53;;;24.27;37.85
61682;BME280;47577;43.610;25.010;2023-10-13T10:33:11;100867.84;;;24.51;37.15
61682;BME280;47577;43.610;25.010;2023-10-13T10:35:40;100872.34;;;24.73;37.24
61682;BME280;47577;43.610;25.010;2023-10-13T10:38:14;100868.03;;;24.70;37.20
61682;BME280;47577;43.610;25.010;2023-10-13T10:41:09;100869.50;;;24.74;37.50
61682;BME280;47577;43.610;25.010;2023-10-13T10:43:39;100866.97;;;24.82;36.23
61682;BME280;47577;43.610;25.010;2023-10-13T10:48:40;100874.97;;;24.63;36.14
61682;BME280;47577;43.610;25.010;2023-10-13T10:51:09;100867.34;;;24.57;36.28
61682;BME280;47577;43.610;25.010;2023-10-13T10:53:51;100872.00;;;24.87;36.44
61682;BME280;47577;43.610;25.010;2023-10-13T10:56:24;100874.66;;;24.98;35.74
61682;BME280;47577;43.610;25.010;2023-10-13T10:59:04;100870.34;;;24.96;35.04
61682;BME280;47577;43.610;25.010;2023-10-13T11:01:31;100868.38;;;24.98;35.62
61682;BME280;47577;43.610;25.010;2023-10-13T11:04:07;100859.44;;;24.96;36.65
61682;BME280;47577;43.610;25.010;2023-10-13T11:06:58;100867.81;;;25.04;35.64
61682;BME280;47577;43.610;25.010;2023-10-13T11:09:31;100861.88;;;25.20;36.66
61682;BME280;47577;43.610;25.010;2023-10-13T11:14:43;100865.56;;;25.09;35.23
61682;BME280;47577;43.610;25.010;2023-10-13T11:17:21;100864.00;;;25.16;34.64
61682;BME280;47577;43.610;25.010;2023-10-13T11:19:51;100857.47;;;24.98;35.04
61682;BME280;47577;43.610;25.010;2023-10-13T11:22:20;100862.69;;;25.32;35.01
61682;BME280;47577;43.610;25.010;2023-10-13T11:24:58;100854.72;;;25.40;35.10
61682;BME280;47577;43.610;25.010;2023-10-13T11:27:37;100847.59;;;25.59;35.50
61682;BME280;47577;43.610;25.010;2023-10-13T11:30:18;100850.59;;;25.55;34.75
61682;BME280;47577;43.610;25.010;2023-10-13T11:33:02;100851.88;;;25.51;34.41
61682;BME280;47577;43.610;25.010;2023-10-13T11:35:38;100844.44;;;25.53;34.09
61682;BME280;47577;43.610;25.010;2023-10-13T11:38:29;100851.19;;;25.28;34.58
61682;BME280;47577;43.610;25.010;2023-10-13T11:41:03;100844.13;;;25.47;34.75
61682;BME280;47577;43.610;25.010;2023-10-13T11:43:49;100836.72;;;25.59;34.98
61682;BME280;47577;43.610;25.010;2023-10-13T11:46:16;100830.69;;;25.55;34.63
61682;BME280;47577;43.610;25.010;2023-10-13T11:48:45;100839.31;;;25.70;34.67
61682;BME280;47577;43.610;25.010;2023-10-13T11:51:20;100826.19;;;25.44;34.47
61682;BME280;47577;43.610;25.010;2023-10-13T11:53:51;100834.63;;;25.41;33.82
61682;BME280;47577;43.610;25.010;2023-10-13T11:56:20;100832.94;;;25.40;34.77
61682;BME280;47577;43.610;25.010;2023-10-13T11:58:49;100834.53;;;25.52;34.99
61682;BME280;47577;43.610;25.010;2023-10-13T12:01:16;100826.56;;;25.30;34.87
61682;BME280;47577;43.610;25.010;2023-10-13T12:04:07;100822.53;;;25.55;35.19
61682;BME280;47577;43.610;25.010;2023-10-13T12:06:51;100827.72;;;25.68;34.76
61682;BME280;47577;43.610;25.010;2023-10-13T12:09:37;100818.72;;;25.77;34.35
61682;BME280;47577;43.610;25.010;2023-10-13T12:12:17;100822.34;;;25.97;34.24
61682;BME280;47577;43.610;25.010;2023-10-13T12:14:43;100818.03;;;26.04;34.37
61682;BME280;47577;43.610;25.010;2023-10-13T12:17:18;100817.47;;;26.20;33.96
61682;BME280;47577;43.610;25.010;2023-10-13T12:20:00;100822.78;;;26.12;34.31
61682;BME280;47577;43.610;25.010;2023-10-13T12:22:26;100825.66;;;26.20;34.47
61682;BME280;47577;43.610;25.010;2023-10-13T12:24:56;100821.66;;;26.15;33.56
61682;BME280;47577;43.610;25.010;2023-10-13T12:27:22;100826.50;;;26.01;33.39
61682;BME280;47577;43.610;25.010;2023-10-13T12:30:00;100810.69;;;25.76;33.69
61682;BME280;47577;43.610;25.010;2023-10-13T12:32:33;100818.72;;;25.87;34.16
61682;BME280;47577;43.610;25.010;2023-10-13T12:35:00;100822.91;;;26.01;34.44
61682;BME280;47577;43.610;25.010;2023-10-13T12:37:45;100835.38;;;25.94;33.56
61682;BME280;47577;43.610;25.010;2023-10-13T12:42:59;100829.41;;;26.19;34.00
61682;BME280;47577;43.610;25.010;2023-10-13T12:45:44;100834.84;;;26.49;34.40
61682;BME280;47577;43.610;25.010;2023-10-13T12:48:29;100822.75;;;26.51;35.08
61682;BME280;47577;43.610;25.010;2023-10-13T12:51:14;100829.69;;;26.65;35.04
61682;BME280;47577;43.610;25.010;2023-10-13T12:53:50;100831.81;;;26.81;35.20
61682;BME280;47577;43.610;25.010;2023-10-13T12:56:17;100819.41;;;26.96;33.80
61682;BME280;47577;43.610;25.010;2023-10-13T12:58:43;100814.63;;;26.98;33.90
61682;BME280;47577;43.610;25.010;2023-10-13T13:01:24;100814.66;;;26.89;33.17
61682;BME280;47577;43.610;25.010;2023-10-13T13:03:52;100821.88;;;26.80;34.03
61682;BME280;47577;43.610;25.010;2023-10-13T13:06:24;100819.56;;;26.85;35.03
61682;BME280;47577;43.610;25.010;2023-10-13T13:08:59;100815.25;;;26.92;34.44
61682;BME280;47577;43.610;25.010;2023-10-13T13:11:28;100815.84;;;26.86;34.24
61682;BME280;47577;43.610;25.010;2023-10-13T13:13:55;100826.31;;;26.91;34.56
61682;BME280;47577;43.610;25.010;2023-10-13T13:16:20;100821.00;;;26.89;34.98
61682;BME280;47577;43.610;25.010;2023-10-13T13:18:50;100825.78;;;26.68;34.57
61682;BME280;47577;43.610;25.010;2023-10-13T13:21:15;100820.75;;;26.43;34.60
61682;BME280;47577;43.610;25.010;2023-10-13T13:23:51;100845.00;;;26.46;35.19
61682;BME280;47577;43.610;25.010;2023-10-13T13:26:16;100844.16;;;26.36;36.01
61682;BME280;47577;43.610;25.010;2023-10-13T13:28:46;100843.72;;;26.21;35.58
61682;BME280;47577;43.610;25.010;2023-10-13T13:31:19;100833.53;;;26.04;35.69